createdAt,value
2023-04-23T00:02:03.105Z,12.40
2023-04-23T00:04:34.956Z,12.50
2023-04-23T00:07:03.290Z,12.40
2023-04-23T00:09:33.247Z,12.40
2023-04-23T00:12:01.945Z,12.40
2023-04-23T00:14:29.074Z,12.40
2023-04-23T00:16:56.175Z,12.40
2023-04-23T00:19:22.945Z,12.40
2023-04-23T00:21:49.795Z,12.40
2023-04-23T00:24:16.469Z,12.30
2023-04-23T00:26:43.387Z,12.30
2023-04-23T00:29:10.182Z,12.30
2023-04-23T00:31:37.005Z,12.30
2023-04-23T00:34:03.729Z,12.30
2023-04-23T00:36:31.785Z,12.30
2023-04-23T00:38:58.512Z,12.40
2023-04-23T00:41:27.396Z,12.30
2023-04-23T00:43:54.625Z,12.30
2023-04-23T00:46:22.022Z,12.30
2023-04-23T00:48:49.483Z,12.40
2023-04-23T00:51:17.645Z,12.30
2023-04-23T00:53:44.474Z,12.30
2023-04-23T00:56:11.971Z,12.30
2023-04-23T00:58:39.465Z,12.30
2023-04-23T01:01:07.106Z,12.30
2023-04-23T01:03:36.852Z,12.30
2023-04-23T01:06:04.452Z,12.30
2023-04-23T01:08:32.635Z,12.30
2023-04-23T01:10:59.980Z,12.30
2023-04-23T01:13:29.714Z,12.30
2023-04-23T01:15:57.293Z,12.30
2023-04-23T01:18:24.450Z,12.40
2023-04-23T01:20:51.879Z,12.40
2023-04-23T01:23:19.162Z,12.40
2023-04-23T01:25:46.544Z,12.40
2023-04-23T01:28:13.362Z,12.40
2023-04-23T01:30:43.293Z,12.50
2023-04-23T01:33:11.404Z,12.50
2023-04-23T01:35:39.002Z,12.50
2023-04-23T01:38:09.226Z,12.40
2023-04-23T01:40:36.230Z,12.40
2023-04-23T01:43:04.025Z,12.40
2023-04-23T01:45:31.874Z,12.30
2023-04-23T01:48:00.448Z,12.30
2023-04-23T01:50:29.068Z,12.30
2023-04-23T01:52:55.981Z,12.20
2023-04-23T01:55:23.718Z,12.20
2023-04-23T01:57:51.134Z,12.10
2023-04-23T02:00:18.336Z,12.10
2023-04-23T02:02:45.576Z,12.00
2023-04-23T02:05:18.660Z,12.00
2023-04-23T02:07:50.334Z,12.00
2023-04-23T02:10:18.629Z,12.00
2023-04-23T02:12:46.905Z,11.90
2023-04-23T02:15:15.785Z,11.80
2023-04-23T02:17:42.688Z,11.80
2023-04-23T02:20:11.076Z,11.90
2023-04-23T02:22:39.546Z,11.80
2023-04-23T02:25:07.357Z,11.70
2023-04-23T02:27:34.858Z,11.70
2023-04-23T02:30:02.288Z,11.70
2023-04-23T02:32:29.189Z,11.70
2023-04-23T02:34:56.669Z,11.60
2023-04-23T02:37:23.432Z,11.60
2023-04-23T02:39:50.427Z,11.60
2023-04-23T02:42:17.446Z,11.50
2023-04-23T02:44:44.157Z,11.50
2023-04-23T02:47:10.850Z,11.40
2023-04-23T02:49:37.587Z,11.40
2023-04-23T02:52:04.708Z,11.40
2023-04-23T02:54:32.429Z,11.30
2023-04-23T02:56:59.364Z,11.40
2023-04-23T02:59:26.132Z,11.30
2023-04-23T03:01:53.011Z,11.30
2023-04-23T03:04:20.629Z,11.40
2023-04-23T03:06:47.910Z,11.30
2023-04-23T03:09:15.154Z,11.30
2023-04-23T03:11:41.935Z,11.30
2023-04-23T03:14:08.734Z,11.30
2023-04-23T03:16:35.565Z,11.30
2023-04-23T03:19:02.371Z,11.30
2023-04-23T03:21:29.192Z,11.20
2023-04-23T03:23:56.374Z,11.20
2023-04-23T03:26:23.156Z,11.20
2023-04-23T03:28:49.915Z,11.20
2023-04-23T03:31:16.827Z,11.10
2023-04-23T03:33:43.575Z,11.10
2023-04-23T03:36:10.294Z,11.10
2023-04-23T03:38:36.982Z,11.10
2023-04-23T03:41:03.773Z,11.10
2023-04-23T03:43:30.722Z,11.10
2023-04-23T03:45:57.525Z,11.10
2023-04-23T03:48:24.350Z,11.10
2023-04-23T03:50:51.044Z,11.10
2023-04-23T03:53:17.761Z,11.20
2023-04-23T03:55:44.794Z,11.20
2023-04-23T03:58:11.838Z,11.20
2023-04-23T04:00:38.560Z,11.30
2023-04-23T04:03:05.487Z,11.40
2023-04-23T04:05:32.396Z,11.40
2023-04-23T04:07:59.191Z,11.40
2023-04-23T04:10:26.073Z,11.40
2023-04-23T04:12:52.891Z,11.40
2023-04-23T04:15:20.780Z,11.50
2023-04-23T04:17:48.053Z,11.50
2023-04-23T04:20:14.991Z,11.50
2023-04-23T04:22:42.018Z,11.50
2023-04-23T04:25:09.034Z,11.50
2023-04-23T04:27:36.157Z,11.50
2023-04-23T04:30:03.233Z,11.50
2023-04-23T04:32:30.061Z,11.50
2023-04-23T04:34:57.624Z,11.60
2023-04-23T04:37:24.856Z,11.60
2023-04-23T04:39:51.512Z,11.60
2023-04-23T04:42:19.153Z,11.70
2023-04-23T04:44:46.090Z,11.70
2023-04-23T04:47:13.533Z,11.80
2023-04-23T04:49:40.237Z,11.80
2023-04-23T04:52:07.043Z,11.90
2023-04-23T04:54:33.765Z,11.90
2023-04-23T04:57:00.837Z,12.00
2023-04-23T04:59:27.825Z,12.00
2023-04-23T05:01:54.830Z,12.10
2023-04-23T05:04:21.670Z,12.10
2023-04-23T05:06:48.417Z,12.20
2023-04-23T05:09:15.387Z,12.20
2023-04-23T05:11:42.652Z,12.20
2023-04-23T05:14:09.483Z,12.20
2023-04-23T05:16:36.221Z,12.20
2023-04-23T05:19:02.915Z,12.20
2023-04-23T05:21:29.655Z,12.20
2023-04-23T05:23:56.379Z,12.30
2023-04-23T05:26:23.193Z,12.30
2023-04-23T05:28:49.954Z,12.40
2023-04-23T05:31:16.845Z,12.40
2023-04-23T05:33:50.113Z,12.40
2023-04-23T05:36:18.120Z,12.40
2023-04-23T05:38:45.020Z,12.40
2023-04-23T05:41:11.790Z,12.50
2023-04-23T05:43:38.603Z,12.50
2023-04-23T05:46:07.438Z,12.50
2023-04-23T05:48:34.857Z,12.60
2023-04-23T05:51:01.812Z,12.60
2023-04-23T05:53:28.929Z,12.70
2023-04-23T05:55:56.057Z,12.80
2023-04-23T05:58:23.373Z,12.80
2023-04-23T06:00:50.237Z,12.90
2023-04-23T06:03:17.139Z,12.90
2023-04-23T06:05:44.318Z,13.00
2023-04-23T06:08:11.251Z,13.10
2023-04-23T06:10:38.020Z,13.10
2023-04-23T06:13:04.831Z,13.20
2023-04-23T06:15:31.602Z,13.30
2023-04-23T06:17:59.053Z,13.30
2023-04-23T06:20:26.135Z,13.40
2023-04-23T06:22:53.041Z,13.40
2023-04-23T06:25:20.022Z,13.50
2023-04-23T06:27:46.905Z,13.60
2023-04-23T06:30:13.853Z,13.60
2023-04-23T06:32:40.820Z,13.60
2023-04-23T06:35:08.502Z,13.70
2023-04-23T06:37:35.713Z,13.70
2023-04-23T06:40:02.537Z,13.70
2023-04-23T06:42:29.367Z,13.80
2023-04-23T06:44:57.079Z,13.80
2023-04-23T06:47:23.819Z,13.90
2023-04-23T06:49:50.627Z,14.00
2023-04-23T06:52:17.516Z,14.10
2023-04-23T06:54:44.432Z,14.20
2023-04-23T06:57:11.418Z,14.30
2023-04-23T06:59:38.127Z,14.40
2023-04-23T07:02:05.381Z,14.50
2023-04-23T07:04:32.194Z,14.50
2023-04-23T07:07:00.252Z,14.50
2023-04-23T07:09:28.366Z,14.60
2023-04-23T07:14:23.195Z,14.80
2023-04-23T07:16:50.276Z,14.90
2023-04-23T07:19:17.011Z,14.90
2023-04-23T07:21:44.058Z,14.90
2023-04-23T07:24:11.282Z,15.00
2023-04-23T07:26:38.091Z,15.10
2023-04-23T07:29:06.735Z,15.20
2023-04-23T07:31:33.899Z,15.30
2023-04-23T07:34:01.535Z,15.30
2023-04-23T07:36:28.787Z,15.40
2023-04-23T07:38:55.769Z,15.50
2023-04-23T07:41:22.590Z,15.60
2023-04-23T07:43:49.399Z,15.60
2023-04-23T07:46:16.146Z,15.70
2023-04-23T07:48:42.930Z,15.70
2023-04-23T07:51:10.057Z,15.60
2023-04-23T07:53:36.943Z,15.50
2023-04-23T07:56:03.711Z,15.60
2023-04-23T07:58:30.562Z,15.40
2023-04-23T08:00:57.412Z,15.40
2023-04-23T08:03:24.411Z,15.30
2023-04-23T08:05:51.340Z,15.20
2023-04-23T08:08:18.058Z,15.40
2023-04-23T08:10:45.854Z,15.50
2023-04-23T08:13:12.677Z,15.60
2023-04-23T08:15:39.434Z,15.70
2023-04-23T08:18:06.371Z,15.80
2023-04-23T08:20:34.149Z,16.00
2023-04-23T08:23:00.984Z,16.00
2023-04-23T08:25:27.719Z,16.20
2023-04-23T08:27:54.566Z,16.30
2023-04-23T08:30:21.415Z,16.30
2023-04-23T08:32:51.369Z,16.30
2023-04-23T08:35:18.336Z,16.30
2023-04-23T08:37:45.538Z,16.30
2023-04-23T08:40:13.216Z,16.30
2023-04-23T08:42:47.268Z,16.40
2023-04-23T08:45:14.326Z,16.40
2023-04-23T08:47:45.199Z,16.30
2023-04-23T08:50:13.920Z,16.40
2023-04-23T08:52:44.928Z,16.60
2023-04-23T08:55:12.386Z,17.00
2023-04-23T08:57:40.856Z,17.40
2023-04-23T09:00:10.975Z,17.50
2023-04-23T09:02:41.323Z,17.50
2023-04-23T09:05:08.992Z,17.60
2023-04-23T09:07:36.948Z,17.80
2023-04-23T09:10:06.121Z,18.00
2023-04-23T09:12:38.185Z,17.80
2023-04-23T09:15:12.739Z,17.70
2023-04-23T09:17:43.955Z,17.80
2023-04-23T09:20:12.601Z,18.00
2023-04-23T09:22:51.493Z,18.20
2023-04-23T09:25:20.643Z,18.50
2023-04-23T09:27:49.223Z,18.50
2023-04-23T09:30:17.417Z,18.60
2023-04-23T09:32:48.171Z,18.50
2023-04-23T09:35:16.963Z,18.60
2023-04-23T09:37:49.516Z,18.70
2023-04-23T09:40:23.258Z,18.60
2023-04-23T09:42:54.267Z,18.60
2023-04-23T09:45:22.043Z,18.50
2023-04-23T09:47:58.950Z,18.60
2023-04-23T09:50:54.775Z,18.60
2023-04-23T09:53:21.478Z,18.60
2023-04-23T09:55:48.244Z,18.60
2023-04-23T09:58:15.946Z,18.60
2023-04-23T10:00:43.213Z,18.70
2023-04-23T10:03:10.874Z,18.80
2023-04-23T10:05:56.210Z,18.90
2023-04-23T10:08:28.275Z,18.80
2023-04-23T10:11:09.694Z,18.80
2023-04-23T10:13:41.392Z,18.90
2023-04-23T10:16:21.445Z,19.10
2023-04-23T10:18:52.899Z,19.10
2023-04-23T10:21:20.370Z,19.10
2023-04-23T10:23:50.277Z,19.10
2023-04-23T10:26:19.548Z,18.90
2023-04-23T10:28:49.198Z,19.00
2023-04-23T10:31:16.767Z,19.00
2023-04-23T10:33:56.038Z,19.10
2023-04-23T10:36:27.459Z,19.10
2023-04-23T10:38:58.803Z,19.00
2023-04-23T10:41:35.088Z,18.90
2023-04-23T10:44:02.614Z,18.90
2023-04-23T10:46:31.253Z,18.80
2023-04-23T10:49:16.827Z,18.80
2023-04-23T10:54:19.792Z,18.60
2023-04-23T10:56:57.631Z,18.60
2023-04-23T10:59:25.020Z,18.70
2023-04-23T11:01:51.861Z,18.80
2023-04-23T11:04:24.028Z,19.00
2023-04-23T11:06:55.084Z,19.00
2023-04-23T11:09:34.677Z,19.00
2023-04-23T11:12:02.801Z,19.10
2023-04-23T11:14:37.703Z,19.10
2023-04-23T11:17:06.996Z,19.10
2023-04-23T11:19:41.617Z,19.20
2023-04-23T11:22:20.498Z,19.20
2023-04-23T11:24:50.894Z,19.20
2023-04-23T11:27:19.825Z,19.20
2023-04-23T11:29:47.846Z,19.20
2023-04-23T11:32:17.082Z,19.20
2023-04-23T11:34:46.317Z,19.30
2023-04-23T11:37:14.978Z,19.40
2023-04-23T11:39:44.124Z,19.60
2023-04-23T11:42:11.214Z,19.70
2023-04-23T11:44:42.642Z,19.60
2023-04-23T11:47:11.350Z,19.50
2023-04-23T11:49:44.386Z,19.40
2023-04-23T11:52:12.391Z,19.40
2023-04-23T11:54:42.176Z,19.30
2023-04-23T11:57:10.057Z,19.50
2023-04-23T11:59:36.902Z,19.80
2023-04-23T12:02:03.759Z,19.90
2023-04-23T12:04:31.692Z,20.00
2023-04-23T12:06:59.386Z,20.20
2023-04-23T12:09:28.851Z,20.20
2023-04-23T12:11:58.111Z,20.30
2023-04-23T12:14:33.061Z,20.70
2023-04-23T12:17:09.982Z,21.00
2023-04-23T12:19:36.993Z,20.60
2023-04-23T12:22:04.486Z,20.70
2023-04-23T12:24:45.863Z,20.70
2023-04-23T12:27:15.868Z,21.00
2023-04-23T12:29:43.173Z,21.00
2023-04-23T12:32:11.763Z,20.80
2023-04-23T12:34:53.016Z,21.10
2023-04-23T12:37:25.554Z,21.00
2023-04-23T12:39:53.944Z,21.00
2023-04-23T12:42:20.769Z,21.10
2023-04-23T12:44:47.653Z,21.20
2023-04-23T12:47:15.324Z,21.10
2023-04-23T12:49:43.278Z,21.10
2023-04-23T12:52:12.881Z,20.90
2023-04-23T12:54:41.238Z,20.90
2023-04-23T12:57:11.177Z,20.90
2023-04-23T12:59:38.365Z,20.80
2023-04-23T13:02:06.780Z,20.90
2023-04-23T13:04:35.266Z,20.80
2023-04-23T13:07:02.391Z,20.70
2023-04-23T13:09:29.482Z,20.80
2023-04-23T13:11:56.659Z,21.00
2023-04-23T13:14:23.715Z,20.70
2023-04-23T13:16:50.964Z,20.60
2023-04-23T13:19:17.884Z,20.70
2023-04-23T13:21:47.181Z,20.80
2023-04-23T13:24:13.964Z,20.80
2023-04-23T13:26:40.709Z,20.50
2023-04-23T13:29:07.947Z,20.70
2023-04-23T13:31:34.893Z,20.60
2023-04-23T13:34:03.064Z,20.70
2023-04-23T13:36:30.294Z,20.40
2023-04-23T13:38:57.204Z,20.40
2023-04-23T13:41:24.141Z,20.50
2023-04-23T13:43:51.313Z,20.40
2023-04-23T13:46:19.640Z,20.30
2023-04-23T13:48:46.736Z,20.20
2023-04-23T13:51:32.582Z,20.10
2023-04-23T13:54:00.748Z,19.90
2023-04-23T13:56:27.987Z,19.90
2023-04-23T13:58:59.872Z,19.70
2023-04-23T14:01:32.028Z,19.60
2023-04-23T14:03:59.151Z,19.50
2023-04-23T14:06:26.366Z,19.40
2023-04-23T14:08:53.180Z,19.40
2023-04-23T14:11:19.953Z,19.40
2023-04-23T14:13:46.685Z,19.60
2023-04-23T14:16:13.621Z,19.50
2023-04-23T14:18:40.549Z,19.50
2023-04-23T14:21:07.647Z,19.60
2023-04-23T14:23:53.025Z,19.50
2023-04-23T14:26:48.019Z,19.40
2023-04-23T14:29:45.135Z,19.00
2023-04-23T14:32:12.590Z,19.00
2023-04-23T14:34:39.700Z,18.90
2023-04-23T14:37:06.550Z,18.70
2023-04-23T14:39:34.887Z,18.70
2023-04-23T14:42:01.604Z,18.70
2023-04-23T14:44:28.678Z,18.60
2023-04-23T14:46:56.467Z,18.60
2023-04-23T14:49:24.024Z,18.50
2023-04-23T14:51:55.119Z,18.50
2023-04-23T14:54:22.316Z,18.40
2023-04-23T14:56:49.202Z,18.50
2023-04-23T14:59:16.224Z,18.50
2023-04-23T15:01:43.887Z,18.40
2023-04-23T15:04:11.638Z,18.40
2023-04-23T15:06:40.485Z,18.40
2023-04-23T15:09:07.477Z,18.30
2023-04-23T15:11:34.415Z,18.20
2023-04-23T15:14:23.895Z,18.10
2023-04-23T15:16:50.767Z,18.00
2023-04-23T15:19:18.851Z,18.00
2023-04-23T15:21:46.863Z,17.90
2023-04-23T15:24:14.174Z,17.80
2023-04-23T15:26:41.284Z,17.80
2023-04-23T15:29:09.194Z,17.80
2023-04-23T15:31:37.118Z,17.80
2023-04-23T15:34:06.154Z,17.80
2023-04-23T15:36:34.822Z,17.80
2023-04-23T15:39:01.828Z,17.70
2023-04-23T15:41:29.003Z,17.70
2023-04-23T15:43:56.583Z,17.60
2023-04-23T15:46:23.439Z,17.50
2023-04-23T15:48:50.183Z,17.40
2023-04-23T15:51:17.257Z,17.30
2023-04-23T15:53:44.046Z,17.20
2023-04-23T15:56:10.835Z,17.00
2023-04-23T15:58:37.623Z,16.90
2023-04-23T16:01:07.100Z,16.90
2023-04-23T16:03:34.411Z,16.90
2023-04-23T16:06:01.787Z,16.80
2023-04-23T16:08:28.527Z,16.80
2023-04-23T16:10:57.112Z,16.80
2023-04-23T16:13:25.139Z,16.70
2023-04-23T16:15:51.909Z,16.40
2023-04-23T16:18:18.734Z,16.20
2023-04-23T16:20:45.672Z,16.00
2023-04-23T16:23:12.417Z,16.00
2023-04-23T16:25:39.332Z,15.60
2023-04-23T16:28:06.350Z,15.20
2023-04-23T16:30:33.150Z,14.90
2023-04-23T16:33:00.018Z,14.80
2023-04-23T16:35:27.004Z,14.60
2023-04-23T16:37:53.848Z,14.60
2023-04-23T16:40:21.510Z,14.50
2023-04-23T16:42:48.867Z,14.50
2023-04-23T16:45:15.886Z,14.60
2023-04-23T16:47:45.457Z,14.50
2023-04-23T16:50:12.368Z,14.50
2023-04-23T16:52:39.217Z,14.50
2023-04-23T16:55:06.282Z,14.40
2023-04-23T16:57:34.883Z,14.30
2023-04-23T17:00:01.672Z,14.30
2023-04-23T17:02:28.620Z,14.30
2023-04-23T17:04:55.571Z,14.20
2023-04-23T17:07:22.485Z,14.30
2023-04-23T17:09:49.421Z,14.30
2023-04-23T17:12:16.684Z,14.40
2023-04-23T17:14:43.662Z,14.40
2023-04-23T17:17:10.558Z,14.40
2023-04-23T17:19:37.320Z,14.40
2023-04-23T17:22:06.365Z,14.30
2023-04-23T17:24:33.284Z,14.40
2023-04-23T17:27:00.042Z,14.30
2023-04-23T17:29:26.787Z,14.20
2023-04-23T17:31:53.538Z,14.20
2023-04-23T17:34:20.360Z,14.20
2023-04-23T17:36:47.154Z,14.20
2023-04-23T17:39:14.008Z,14.20
2023-04-23T17:41:40.803Z,14.20
2023-04-23T17:44:07.527Z,14.20
2023-04-23T17:46:34.303Z,14.30
2023-04-23T17:49:01.665Z,14.30
2023-04-23T17:51:28.591Z,14.30
2023-04-23T17:53:55.496Z,14.30
2023-04-23T17:56:23.019Z,14.20
2023-04-23T17:58:49.827Z,14.20
2023-04-23T18:01:17.793Z,14.20
2023-04-23T18:03:45.119Z,14.20
2023-04-23T18:06:12.240Z,14.20
2023-04-23T18:08:41.909Z,14.20
2023-04-23T18:11:09.567Z,14.20
2023-04-23T18:13:36.702Z,14.20
2023-04-23T18:16:03.610Z,14.10
2023-04-23T18:18:30.474Z,14.10
2023-04-23T18:20:57.290Z,14.10
2023-04-23T18:23:25.985Z,14.10
2023-04-23T18:25:52.829Z,14.20
2023-04-23T18:28:19.646Z,14.20
2023-04-23T18:30:46.447Z,14.20
2023-04-23T18:33:19.335Z,14.30
2023-04-23T18:35:49.242Z,14.30
2023-04-23T18:38:45.700Z,14.30
2023-04-23T18:41:12.418Z,14.30
2023-04-23T18:43:39.263Z,14.30
2023-04-23T18:46:06.206Z,14.40
2023-04-23T18:48:35.899Z,14.30
2023-04-23T18:51:15.446Z,14.30
2023-04-23T18:53:42.222Z,14.20
2023-04-23T18:56:09.126Z,14.30
2023-04-23T18:58:35.817Z,14.30
2023-04-23T19:01:02.780Z,14.30
2023-04-23T19:03:29.779Z,14.30
2023-04-23T19:05:57.011Z,14.30
2023-04-23T19:08:28.985Z,14.30
2023-04-23T19:10:56.477Z,14.40
2023-04-23T19:13:23.520Z,14.40
2023-04-23T19:15:51.553Z,14.40
2023-04-23T19:18:18.918Z,14.40
2023-04-23T19:20:45.838Z,14.50
2023-04-23T19:23:12.825Z,14.50
2023-04-23T19:25:39.652Z,14.60
2023-04-23T19:28:06.445Z,14.50
2023-04-23T19:30:33.288Z,14.50
2023-04-23T19:33:00.232Z,14.50
2023-04-23T19:35:27.047Z,14.40
2023-04-23T19:37:53.790Z,14.50
2023-04-23T19:40:20.583Z,14.40
2023-04-23T19:42:48.948Z,14.30
2023-04-23T19:45:17.784Z,14.20
2023-04-23T19:47:44.948Z,14.20
2023-04-23T19:50:13.745Z,14.20
2023-04-23T19:52:41.314Z,14.20
2023-04-23T19:55:08.526Z,14.10
2023-04-23T19:57:35.616Z,14.10
2023-04-23T20:00:02.452Z,14.10
2023-04-23T20:02:29.328Z,14.10
2023-04-23T20:04:56.134Z,14.10
2023-04-23T20:07:22.888Z,14.10
2023-04-23T20:09:49.629Z,14.10
2023-04-23T20:12:16.970Z,14.10
2023-04-23T20:14:43.624Z,14.10
2023-04-23T20:17:10.752Z,14.10
2023-04-23T20:19:38.400Z,14.10
2023-04-23T20:22:05.255Z,14.00
2023-04-23T20:24:31.984Z,14.10
2023-04-23T20:26:59.152Z,14.00
2023-04-23T20:29:27.488Z,14.00
2023-04-23T20:31:54.286Z,14.00
2023-04-23T20:34:21.155Z,14.00
2023-04-23T20:36:47.967Z,14.00
2023-04-23T20:39:15.311Z,14.00
2023-04-23T20:41:42.274Z,13.90
2023-04-23T20:44:09.837Z,13.90
2023-04-23T20:46:36.910Z,13.90
2023-04-23T20:49:04.353Z,13.90
2023-04-23T20:51:34.114Z,13.80
2023-04-23T20:54:01.953Z,13.80
2023-04-23T20:56:29.453Z,13.80
2023-04-23T20:58:57.703Z,13.90
2023-04-23T21:01:25.647Z,13.80
2023-04-23T21:03:53.646Z,13.80
2023-04-23T21:06:21.501Z,13.90
2023-04-23T21:08:49.152Z,13.90
2023-04-23T21:11:18.140Z,13.90
2023-04-23T21:13:46.105Z,13.90
2023-04-23T21:16:13.392Z,13.90
2023-04-23T21:18:41.150Z,13.90
2023-04-23T21:21:08.022Z,13.90
2023-04-23T21:23:35.429Z,13.90
2023-04-23T21:26:02.375Z,13.90
2023-04-23T21:28:29.110Z,13.90
2023-04-23T21:30:57.570Z,13.80
2023-04-23T21:33:25.428Z,13.80
2023-04-23T21:35:53.685Z,13.80
2023-04-23T21:38:21.578Z,13.90
2023-04-23T21:40:48.585Z,13.80
2023-04-23T21:43:16.248Z,13.70
2023-04-23T21:45:43.109Z,13.70
2023-04-23T21:48:10.167Z,13.70
2023-04-23T21:50:37.309Z,13.70
2023-04-23T21:53:04.216Z,13.70
2023-04-23T21:55:31.804Z,13.70
2023-04-23T21:58:09.961Z,13.70
2023-04-23T22:00:44.574Z,13.70
2023-04-23T22:03:13.517Z,13.70
2023-04-23T22:05:42.958Z,13.70
2023-04-23T22:08:09.751Z,13.70
2023-04-23T22:10:42.879Z,13.70
2023-04-23T22:13:10.155Z,13.80
2023-04-23T22:15:36.962Z,13.70
2023-04-23T22:18:03.877Z,13.70
2023-04-23T22:20:30.811Z,13.80
2023-04-23T22:22:57.634Z,13.70
2023-04-23T22:25:24.533Z,13.70
2023-04-23T22:27:51.337Z,13.70
2023-04-23T22:30:18.697Z,13.70
2023-04-23T22:32:45.658Z,13.70
2023-04-23T22:35:12.458Z,13.60
2023-04-23T22:37:39.719Z,13.70
2023-04-23T22:40:08.154Z,13.60
2023-04-23T22:42:35.002Z,13.60
2023-04-23T22:45:01.959Z,13.60
2023-04-23T22:47:29.600Z,13.60
2023-04-23T22:49:57.077Z,13.50
2023-04-23T22:52:23.948Z,13.50
2023-04-23T22:54:51.639Z,13.40
2023-04-23T22:57:18.405Z,13.40
2023-04-23T22:59:45.296Z,13.40
2023-04-23T23:02:12.284Z,13.40
2023-04-23T23:04:39.277Z,13.40
2023-04-23T23:07:06.374Z,13.40
2023-04-23T23:09:33.251Z,13.40
2023-04-23T23:12:04.443Z,13.40
2023-04-23T23:14:31.982Z,13.30
2023-04-23T23:16:58.920Z,13.40
2023-04-23T23:19:27.304Z,13.40
2023-04-23T23:21:54.186Z,13.40
2023-04-23T23:24:22.082Z,13.40
2023-04-23T23:26:49.166Z,13.40
2023-04-23T23:29:16.359Z,13.40
2023-04-23T23:31:43.272Z,13.40
2023-04-23T23:34:10.278Z,13.40
2023-04-23T23:36:37.035Z,13.40
2023-04-23T23:39:04.492Z,13.30
2023-04-23T23:41:31.204Z,13.30
2023-04-23T23:43:57.994Z,13.30
2023-04-23T23:46:25.471Z,13.30
2023-04-23T23:48:52.298Z,13.30
2023-04-23T23:51:19.145Z,13.20
2023-04-23T23:53:45.971Z,13.20
2023-04-23T23:56:12.977Z,13.20
2023-04-23T23:58:39.691Z,13.20
